sensor_id;sensor_type;location;lat;lon;timestamp;temperature;humidity
20081;DHT22;10200;49.232;9.222;2023-07-29T00:01:59;18.70;99.90
20081;DHT22;10200;49.232;9.222;2023-07-29T00:04:26;18.70;99.90
20081;DHT22;10200;49.232;9.222;2023-07-29T00:06:51;18.60;99.90
20081;DHT22;10200;49.232;9.222;2023-07-29T00:09:17;18.60;99.90
20081;DHT22;10200;49.232;9.222;2023-07-29T00:11:43;18.60;99.90
20081;DHT22;10200;49.232;9.222;2023-07-29T00:14:08;18.60;99.90
20081;DHT22;10200;49.232;9.222;2023-07-29T00:16:34;18.60;99.90
20081;DHT22;10200;49.232;9.222;2023-07-29T00:18:59;18.70;99.90
20081;DHT22;10200;49.232;9.222;2023-07-29T00:21:25;18.70;99.90
20081;DHT22;10200;49.232;9.222;2023-07-29T00:23:50;18.70;99.90
20081;DHT22;10200;49.232;9.222;2023-07-29T00:26:18;18.70;99.90
20081;DHT22;10200;49.232;9.222;2023-07-29T00:28:44;18.70;99.90
20081;DHT22;10200;49.232;9.222;2023-07-29T00:31:09;18.70;99.90
20081;DHT22;10200;49.232;9.222;2023-07-29T00:33:35;18.70;99.90
20081;DHT22;10200;49.232;9.222;2023-07-29T00:36:02;18.70;99.90
20081;DHT22;10200;49.232;9.222;2023-07-29T00:38:28;18.70;99.90
20081;DHT22;10200;49.232;9.222;2023-07-29T00:40:53;18.70;99.90
20081;DHT22;10200;49.232;9.222;2023-07-29T00:43:19;18.60;99.90
20081;DHT22;10200;49.232;9.222;2023-07-29T00:45:45;18.60;99.90
20081;DHT22;10200;49.232;9.222;2023-07-29T00:48:11;18.60;99.90
20081;DHT22;10200;49.232;9.222;2023-07-29T00:50:36;18.70;99.90
20081;DHT22;10200;49.232;9.222;2023-07-29T00:53:02;18.70;99.90
20081;DHT22;10200;49.232;9.222;2023-07-29T00:55:29;18.70;99.90
20081;DHT22;10200;49.232;9.222;2023-07-29T00:57:55;18.70;99.90
20081;DHT22;10200;49.232;9.222;2023-07-29T01:00:21;18.70;99.90
20081;DHT22;10200;49.232;9.222;2023-07-29T01:02:47;18.70;99.90
20081;DHT22;10200;49.232;9.222;2023-07-29T01:05:15;18.80;99.90
20081;DHT22;10200;49.232;9.222;2023-07-29T01:08:01;18.70;99.90
20081;DHT22;10200;49.232;9.222;2023-07-29T01:11:03;18.80;99.90
20081;DHT22;10200;49.232;9.222;2023-07-29T01:13:44;18.80;99.90
20081;DHT22;10200;49.232;9.222;2023-07-29T01:16:21;18.80;99.90
20081;DHT22;10200;49.232;9.222;2023-07-29T01:18:51;18.80;99.90
20081;DHT22;10200;49.232;9.222;2023-07-29T01:21:19;18.70;99.90
20081;DHT22;10200;49.232;9.222;2023-07-29T01:23:46;18.70;99.90
20081;DHT22;10200;49.232;9.222;2023-07-29T01:26:11;18.60;99.90
20081;DHT22;10200;49.232;9.222;2023-07-29T01:28:37;18.60;99.90
20081;DHT22;10200;49.232;9.222;2023-07-29T01:31:16;18.60;99.90
20081;DHT22;10200;49.232;9.222;2023-07-29T01:33:59;18.70;99.90
20081;DHT22;10200;49.232;9.222;2023-07-29T01:36:29;18.70;99.90
20081;DHT22;10200;49.232;9.222;2023-07-29T01:38:57;18.70;99.90
20081;DHT22;10200;49.232;9.222;2023-07-29T01:41:24;18.70;99.90
20081;DHT22;10200;49.232;9.222;2023-07-29T01:43:50;18.70;99.90
20081;DHT22;10200;49.232;9.222;2023-07-29T01:46:17;18.70;99.90
20081;DHT22;10200;49.232;9.222;2023-07-29T01:48:43;18.80;99.90
20081;DHT22;10200;49.232;9.222;2023-07-29T01:51:11;18.80;99.90
20081;DHT22;10200;49.232;9.222;2023-07-29T01:53:38;18.70;99.90
20081;DHT22;10200;49.232;9.222;2023-07-29T01:56:04;18.70;99.90
20081;DHT22;10200;49.232;9.222;2023-07-29T01:58:30;18.70;99.90
20081;DHT22;10200;49.232;9.222;2023-07-29T02:00:55;18.70;99.90
20081;DHT22;10200;49.232;9.222;2023-07-29T02:03:21;18.70;99.90
20081;DHT22;10200;49.232;9.222;2023-07-29T02:05:47;18.70;99.90
20081;DHT22;10200;49.232;9.222;2023-07-29T02:08:12;18.70;99.90
20081;DHT22;10200;49.232;9.222;2023-07-29T02:10:39;18.80;99.90
20081;DHT22;10200;49.232;9.222;2023-07-29T02:13:04;18.70;99.90
20081;DHT22;10200;49.232;9.222;2023-07-29T02:15:30;18.70;99.90
20081;DHT22;10200;49.232;9.222;2023-07-29T02:17:56;18.70;99.90
20081;DHT22;10200;49.232;9.222;2023-07-29T02:20:21;18.80;99.90
20081;DHT22;10200;49.232;9.222;2023-07-29T02:22:47;18.80;99.90
20081;DHT22;10200;49.232;9.222;2023-07-29T02:25:14;18.80;99.90
20081;DHT22;10200;49.232;9.222;2023-07-29T02:27:40;18.80;99.90
20081;DHT22;10200;49.232;9.222;2023-07-29T02:30:06;18.80;99.90
20081;DHT22;10200;49.232;9.222;2023-07-29T02:32:32;18.70;99.90
20081;DHT22;10200;49.232;9.222;2023-07-29T02:34:57;18.80;99.90
20081;DHT22;10200;49.232;9.222;2023-07-29T02:37:23;18.70;99.90
20081;DHT22;10200;49.232;9.222;2023-07-29T02:39:50;18.70;99.90
20081;DHT22;10200;49.232;9.222;2023-07-29T02:42:15;18.70;99.90
20081;DHT22;10200;49.232;9.222;2023-07-29T02:44:41;18.70;99.90
20081;DHT22;10200;49.232;9.222;2023-07-29T02:47:07;18.70;99.90
20081;DHT22;10200;49.232;9.222;2023-07-29T02:49:32;18.80;99.90
20081;DHT22;10200;49.232;9.222;2023-07-29T02:51:59;18.70;99.90
20081;DHT22;10200;49.232;9.222;2023-07-29T02:54:25;18.80;99.90
20081;DHT22;10200;49.232;9.222;2023-07-29T02:56:50;18.80;99.90
20081;DHT22;10200;49.232;9.222;2023-07-29T02:59:16;18.80;99.90
20081;DHT22;10200;49.232;9.222;2023-07-29T03:01:43;18.80;99.90
20081;DHT22;10200;49.232;9.222;2023-07-29T03:04:09;18.80;99.90
20081;DHT22;10200;49.232;9.222;2023-07-29T03:06:38;18.80;99.90
20081;DHT22;10200;49.232;9.222;2023-07-29T03:09:05;18.80;99.90
20081;DHT22;10200;49.232;9.222;2023-07-29T03:11:31;18.70;99.90
20081;DHT22;10200;49.232;9.222;2023-07-29T03:13:56;18.70;99.90
20081;DHT22;10200;49.232;9.222;2023-07-29T03:16:22;18.70;99.90
20081;DHT22;10200;49.232;9.222;2023-07-29T03:18:49;18.70;99.90
20081;DHT22;10200;49.232;9.222;2023-07-29T03:21:15;18.70;99.90
20081;DHT22;10200;49.232;9.222;2023-07-29T03:23:41;18.70;99.90
20081;DHT22;10200;49.232;9.222;2023-07-29T03:26:07;18.70;99.90
20081;DHT22;10200;49.232;9.222;2023-07-29T03:28:37;18.70;99.90
20081;DHT22;10200;49.232;9.222;2023-07-29T03:31:03;18.70;99.90
20081;DHT22;10200;49.232;9.222;2023-07-29T03:33:29;18.70;99.90
20081;DHT22;10200;49.232;9.222;2023-07-29T03:35:55;18.80;99.90
20081;DHT22;10200;49.232;9.222;2023-07-29T03:38:21;18.80;99.90
20081;DHT22;10200;49.232;9.222;2023-07-29T03:40:47;18.80;99.90
20081;DHT22;10200;49.232;9.222;2023-07-29T03:43:12;18.80;99.90
20081;DHT22;10200;49.232;9.222;2023-07-29T03:45:39;18.80;99.90
20081;DHT22;10200;49.232;9.222;2023-07-29T03:48:05;18.80;99.90
20081;DHT22;10200;49.232;9.222;2023-07-29T03:50:33;18.80;99.90
20081;DHT22;10200;49.232;9.222;2023-07-29T03:53:01;18.80;99.90
20081;DHT22;10200;49.232;9.222;2023-07-29T03:55:26;18.80;99.90
20081;DHT22;10200;49.232;9.222;2023-07-29T03:57:52;18.80;99.90
20081;DHT22;10200;49.232;9.222;2023-07-29T04:00:19;18.80;99.90
20081;DHT22;10200;49.232;9.222;2023-07-29T04:02:44;18.80;99.90
20081;DHT22;10200;49.232;9.222;2023-07-29T04:05:12;18.70;99.90
20081;DHT22;10200;49.232;9.222;2023-07-29T04:07:38;18.70;99.90
20081;DHT22;10200;49.232;9.222;2023-07-29T04:10:05;18.70;99.90
20081;DHT22;10200;49.232;9.222;2023-07-29T04:12:31;18.70;99.90
20081;DHT22;10200;49.232;9.222;2023-07-29T04:14:57;18.80;99.90
20081;DHT22;10200;49.232;9.222;2023-07-29T04:17:22;18.90;99.90
20081;DHT22;10200;49.232;9.222;2023-07-29T04:19:48;18.80;99.90
20081;DHT22;10200;49.232;9.222;2023-07-29T04:22:16;18.90;99.90
20081;DHT22;10200;49.232;9.222;2023-07-29T04:24:43;18.90;99.90
20081;DHT22;10200;49.232;9.222;2023-07-29T04:27:09;18.90;99.90
20081;DHT22;10200;49.232;9.222;2023-07-29T04:29:35;18.90;99.90
20081;DHT22;10200;49.232;9.222;2023-07-29T04:32:02;18.90;99.90
20081;DHT22;10200;49.232;9.222;2023-07-29T04:34:28;18.90;99.90
20081;DHT22;10200;49.232;9.222;2023-07-29T04:36:54;18.90;99.90
20081;DHT22;10200;49.232;9.222;2023-07-29T04:39:20;18.90;99.90
20081;DHT22;10200;49.232;9.222;2023-07-29T04:41:45;18.90;99.90
20081;DHT22;10200;49.232;9.222;2023-07-29T04:44:11;18.90;99.90
20081;DHT22;10200;49.232;9.222;2023-07-29T04:46:38;18.90;99.90
20081;DHT22;10200;49.232;9.222;2023-07-29T04:49:04;18.90;99.90
20081;DHT22;10200;49.232;9.222;2023-07-29T04:51:30;18.90;99.90
20081;DHT22;10200;49.232;9.222;2023-07-29T04:53:57;19.00;99.90
20081;DHT22;10200;49.232;9.222;2023-07-29T04:56:23;19.00;99.90
20081;DHT22;10200;49.232;9.222;2023-07-29T04:58:49;19.00;99.90
20081;DHT22;10200;49.232;9.222;2023-07-29T05:01:14;19.00;99.90
20081;DHT22;10200;49.232;9.222;2023-07-29T05:03:40;19.00;99.90
20081;DHT22;10200;49.232;9.222;2023-07-29T05:06:06;19.00;99.90
20081;DHT22;10200;49.232;9.222;2023-07-29T05:08:31;18.90;99.90
20081;DHT22;10200;49.232;9.222;2023-07-29T05:10:57;18.90;99.90
20081;DHT22;10200;49.232;9.222;2023-07-29T05:13:23;19.00;99.90
20081;DHT22;10200;49.232;9.222;2023-07-29T05:15:49;19.00;99.90
20081;DHT22;10200;49.232;9.222;2023-07-29T05:18:15;18.90;99.90
20081;DHT22;10200;49.232;9.222;2023-07-29T05:20:41;18.90;99.90
20081;DHT22;10200;49.232;9.222;2023-07-29T05:23:07;18.90;99.90
20081;DHT22;10200;49.232;9.222;2023-07-29T05:25:33;18.90;99.90
20081;DHT22;10200;49.232;9.222;2023-07-29T05:28:03;18.90;99.90
20081;DHT22;10200;49.232;9.222;2023-07-29T05:30:29;18.80;99.90
20081;DHT22;10200;49.232;9.222;2023-07-29T05:32:59;18.90;99.90
20081;DHT22;10200;49.232;9.222;2023-07-29T05:35:25;18.80;99.90
20081;DHT22;10200;49.232;9.222;2023-07-29T05:37:50;18.90;99.90
20081;DHT22;10200;49.232;9.222;2023-07-29T05:40:16;18.90;99.90
20081;DHT22;10200;49.232;9.222;2023-07-29T05:42:42;19.00;99.90
20081;DHT22;10200;49.232;9.222;2023-07-29T05:45:08;19.00;99.90
20081;DHT22;10200;49.232;9.222;2023-07-29T05:47:34;19.10;99.90
20081;DHT22;10200;49.232;9.222;2023-07-29T05:49:59;19.10;99.90
20081;DHT22;10200;49.232;9.222;2023-07-29T05:52:32;19.20;99.90
20081;DHT22;10200;49.232;9.222;2023-07-29T05:54:58;19.20;99.90
20081;DHT22;10200;49.232;9.222;2023-07-29T05:57:24;19.20;99.90
20081;DHT22;10200;49.232;9.222;2023-07-29T05:59:49;19.30;99.90
20081;DHT22;10200;49.232;9.222;2023-07-29T06:02:15;19.30;99.90
20081;DHT22;10200;49.232;9.222;2023-07-29T06:04:40;19.30;99.90
20081;DHT22;10200;49.232;9.222;2023-07-29T06:07:06;19.30;99.90
20081;DHT22;10200;49.232;9.222;2023-07-29T06:09:32;19.40;99.90
20081;DHT22;10200;49.232;9.222;2023-07-29T06:11:57;19.40;99.90
20081;DHT22;10200;49.232;9.222;2023-07-29T06:14:23;19.40;99.90
20081;DHT22;10200;49.232;9.222;2023-07-29T06:16:48;19.60;99.90
20081;DHT22;10200;49.232;9.222;2023-07-29T06:19:14;19.60;99.90
20081;DHT22;10200;49.232;9.222;2023-07-29T06:21:40;19.70;99.90
20081;DHT22;10200;49.232;9.222;2023-07-29T06:24:05;19.80;99.90
20081;DHT22;10200;49.232;9.222;2023-07-29T06:26:31;19.90;99.90
20081;DHT22;10200;49.232;9.222;2023-07-29T06:28:56;19.90;99.90
20081;DHT22;10200;49.232;9.222;2023-07-29T06:31:22;19.90;99.90
20081;DHT22;10200;49.232;9.222;2023-07-29T06:33:48;19.90;99.90
20081;DHT22;10200;49.232;9.222;2023-07-29T06:36:13;19.90;99.90
20081;DHT22;10200;49.232;9.222;2023-07-29T06:38:39;20.00;99.90
20081;DHT22;10200;49.232;9.222;2023-07-29T06:41:06;20.10;99.90
20081;DHT22;10200;49.232;9.222;2023-07-29T06:43:31;20.20;99.90
20081;DHT22;10200;49.232;9.222;2023-07-29T06:45:57;20.20;99.90
20081;DHT22;10200;49.232;9.222;2023-07-29T06:48:23;20.40;99.90
20081;DHT22;10200;49.232;9.222;2023-07-29T06:50:49;20.40;99.90
20081;DHT22;10200;49.232;9.222;2023-07-29T06:53:16;20.50;99.90
20081;DHT22;10200;49.232;9.222;2023-07-29T06:55:42;20.40;99.90
20081;DHT22;10200;49.232;9.222;2023-07-29T06:58:08;20.50;99.90
20081;DHT22;10200;49.232;9.222;2023-07-29T07:00:34;20.50;99.90
20081;DHT22;10200;49.232;9.222;2023-07-29T07:02:59;20.50;99.90
20081;DHT22;10200;49.232;9.222;2023-07-29T07:05:25;20.50;99.90
20081;DHT22;10200;49.232;9.222;2023-07-29T07:07:50;20.50;99.90
20081;DHT22;10200;49.232;9.222;2023-07-29T07:10:16;20.50;99.90
20081;DHT22;10200;49.232;9.222;2023-07-29T07:12:41;20.50;99.90
20081;DHT22;10200;49.232;9.222;2023-07-29T07:15:07;20.50;99.90
20081;DHT22;10200;49.232;9.222;2023-07-29T07:17:33;20.50;99.90
20081;DHT22;10200;49.232;9.222;2023-07-29T07:19:59;20.60;99.90
20081;DHT22;10200;49.232;9.222;2023-07-29T07:22:24;20.70;99.90
20081;DHT22;10200;49.232;9.222;2023-07-29T07:24:50;20.70;99.90
20081;DHT22;10200;49.232;9.222;2023-07-29T07:27:15;20.70;99.90
20081;DHT22;10200;49.232;9.222;2023-07-29T07:29:41;20.70;99.90
20081;DHT22;10200;49.232;9.222;2023-07-29T07:32:06;20.60;99.90
20081;DHT22;10200;49.232;9.222;2023-07-29T07:34:32;20.60;99.90
20081;DHT22;10200;49.232;9.222;2023-07-29T07:36:58;20.60;99.90
20081;DHT22;10200;49.232;9.222;2023-07-29T07:39:24;20.50;99.90
20081;DHT22;10200;49.232;9.222;2023-07-29T07:41:49;20.60;99.90
20081;DHT22;10200;49.232;9.222;2023-07-29T07:44:15;20.70;99.90
20081;DHT22;10200;49.232;9.222;2023-07-29T07:46:43;20.80;99.90
20081;DHT22;10200;49.232;9.222;2023-07-29T07:49:09;21.20;99.90
20081;DHT22;10200;49.232;9.222;2023-07-29T07:51:34;21.20;99.90
20081;DHT22;10200;49.232;9.222;2023-07-29T07:54:00;21.40;99.90
20081;DHT22;10200;49.232;9.222;2023-07-29T07:56:25;21.40;99.90
20081;DHT22;10200;49.232;9.222;2023-07-29T07:58:51;21.50;99.90
20081;DHT22;10200;49.232;9.222;2023-07-29T08:01:17;21.50;99.90
20081;DHT22;10200;49.232;9.222;2023-07-29T08:03:42;21.50;99.90
20081;DHT22;10200;49.232;9.222;2023-07-29T08:06:08;21.60;99.90
20081;DHT22;10200;49.232;9.222;2023-07-29T08:08:33;21.60;99.90
20081;DHT22;10200;49.232;9.222;2023-07-29T08:10:59;21.70;99.90
20081;DHT22;10200;49.232;9.222;2023-07-29T08:13:25;21.70;99.90
20081;DHT22;10200;49.232;9.222;2023-07-29T08:15:51;21.80;99.90
20081;DHT22;10200;49.232;9.222;2023-07-29T08:18:17;21.90;99.90
20081;DHT22;10200;49.232;9.222;2023-07-29T08:20:57;21.90;99.90
20081;DHT22;10200;49.232;9.222;2023-07-29T08:23:25;21.90;99.90
20081;DHT22;10200;49.232;9.222;2023-07-29T08:25:55;21.90;99.90
20081;DHT22;10200;49.232;9.222;2023-07-29T08:28:24;22.10;99.90
20081;DHT22;10200;49.232;9.222;2023-07-29T08:30:50;22.10;99.90
20081;DHT22;10200;49.232;9.222;2023-07-29T08:33:16;22.10;99.90
20081;DHT22;10200;49.232;9.222;2023-07-29T08:35:42;22.10;99.90
20081;DHT22;10200;49.232;9.222;2023-07-29T08:38:07;22.10;99.90
20081;DHT22;10200;49.232;9.222;2023-07-29T08:40:34;22.10;99.90
20081;DHT22;10200;49.232;9.222;2023-07-29T08:43:04;22.20;99.90
20081;DHT22;10200;49.232;9.222;2023-07-29T08:45:34;22.10;99.90
20081;DHT22;10200;49.232;9.222;2023-07-29T08:48:02;22.10;99.90
20081;DHT22;10200;49.232;9.222;2023-07-29T08:50:29;22.00;99.90
20081;DHT22;10200;49.232;9.222;2023-07-29T08:52:58;22.10;99.90
20081;DHT22;10200;49.232;9.222;2023-07-29T08:55:25;22.00;99.90
20081;DHT22;10200;49.232;9.222;2023-07-29T08:57:51;22.00;99.90
20081;DHT22;10200;49.232;9.222;2023-07-29T09:00:17;22.10;99.90
20081;DHT22;10200;49.232;9.222;2023-07-29T09:02:43;22.10;99.90
20081;DHT22;10200;49.232;9.222;2023-07-29T09:05:08;22.10;99.90
20081;DHT22;10200;49.232;9.222;2023-07-29T09:07:35;22.20;99.90
20081;DHT22;10200;49.232;9.222;2023-07-29T09:10:01;22.30;99.90
20081;DHT22;10200;49.232;9.222;2023-07-29T09:12:28;22.50;99.90
20081;DHT22;10200;49.232;9.222;2023-07-29T09:14:53;22.60;99.90
20081;DHT22;10200;49.232;9.222;2023-07-29T09:17:20;22.80;99.90
20081;DHT22;10200;49.232;9.222;2023-07-29T09:19:51;23.20;99.90
20081;DHT22;10200;49.232;9.222;2023-07-29T09:22:23;23.50;99.90
20081;DHT22;10200;49.232;9.222;2023-07-29T09:24:50;23.70;99.90
20081;DHT22;10200;49.232;9.222;2023-07-29T09:27:27;23.80;99.90
20081;DHT22;10200;49.232;9.222;2023-07-29T09:29:56;23.70;99.90
20081;DHT22;10200;49.232;9.222;2023-07-29T09:32:24;23.70;99.90
20081;DHT22;10200;49.232;9.222;2023-07-29T09:34:50;23.50;99.90
20081;DHT22;10200;49.232;9.222;2023-07-29T09:37:23;23.50;99.90
20081;DHT22;10200;49.232;9.222;2023-07-29T09:39:49;23.50;99.90
20081;DHT22;10200;49.232;9.222;2023-07-29T09:42:23;23.60;99.90
20081;DHT22;10200;49.232;9.222;2023-07-29T09:44:49;23.80;99.90
20081;DHT22;10200;49.232;9.222;2023-07-29T09:47:22;24.00;99.90
20081;DHT22;10200;49.232;9.222;2023-07-29T09:49:49;24.20;99.90
20081;DHT22;10200;49.232;9.222;2023-07-29T09:52:16;24.70;99.90
20081;DHT22;10200;49.232;9.222;2023-07-29T09:54:43;25.00;99.90
20081;DHT22;10200;49.232;9.222;2023-07-29T09:57:11;25.00;99.90
20081;DHT22;10200;49.232;9.222;2023-07-29T09:59:37;25.00;99.90
20081;DHT22;10200;49.232;9.222;2023-07-29T10:02:04;25.30;99.90
20081;DHT22;10200;49.232;9.222;2023-07-29T10:04:31;25.60;99.90
20081;DHT22;10200;49.232;9.222;2023-07-29T10:06:58;26.10;99.90
20081;DHT22;10200;49.232;9.222;2023-07-29T10:09:25;26.30;98.20
20081;DHT22;10200;49.232;9.222;2023-07-29T10:11:50;26.30;95.30
20081;DHT22;10200;49.232;9.222;2023-07-29T10:14:19;26.20;95.30
20081;DHT22;10200;49.232;9.222;2023-07-29T10:16:46;25.80;93.90
20081;DHT22;10200;49.232;9.222;2023-07-29T10:19:12;25.70;95.60
20081;DHT22;10200;49.232;9.222;2023-07-29T10:21:43;25.80;96.30
20081;DHT22;10200;49.232;9.222;2023-07-29T10:24:16;25.70;96.30
20081;DHT22;10200;49.232;9.222;2023-07-29T10:26:46;25.80;97.00
20081;DHT22;10200;49.232;9.222;2023-07-29T10:29:13;25.60;95.80
20081;DHT22;10200;49.232;9.222;2023-07-29T10:31:42;25.70;97.40
20081;DHT22;10200;49.232;9.222;2023-07-29T10:34:09;26.00;97.60
20081;DHT22;10200;49.232;9.222;2023-07-29T10:36:35;26.30;97.70
20081;DHT22;10200;49.232;9.222;2023-07-29T10:39:01;26.30;95.10
20081;DHT22;10200;49.232;9.222;2023-07-29T10:41:56;26.30;93.60
20081;DHT22;10200;49.232;9.222;2023-07-29T10:47:24;26.20;92.50
20081;DHT22;10200;49.232;9.222;2023-07-29T10:49:52;26.10;92.90
20081;DHT22;10200;49.232;9.222;2023-07-29T10:55:00;26.20;93.20
20081;DHT22;10200;49.232;9.222;2023-07-29T10:57:40;26.30;92.40
20081;DHT22;10200;49.232;9.222;2023-07-29T11:00:10;26.40;91.40
20081;DHT22;10200;49.232;9.222;2023-07-29T11:02:38;26.30;90.70
20081;DHT22;10200;49.232;9.222;2023-07-29T11:05:17;26.20;91.10
20081;DHT22;10200;49.232;9.222;2023-07-29T11:07:46;26.10;91.40
20081;DHT22;10200;49.232;9.222;2023-07-29T11:10:13;26.00;91.20
20081;DHT22;10200;49.232;9.222;2023-07-29T11:12:49;25.80;92.20
20081;DHT22;10200;49.232;9.222;2023-07-29T11:17:52;25.50;91.80
20081;DHT22;10200;49.232;9.222;2023-07-29T11:20:21;25.30;92.10
20081;DHT22;10200;49.232;9.222;2023-07-29T11:22:47;25.30;94.70
20081;DHT22;10200;49.232;9.222;2023-07-29T11:25:15;25.30;96.90
20081;DHT22;10200;49.232;9.222;2023-07-29T11:27:44;25.40;97.10
20081;DHT22;10200;49.232;9.222;2023-07-29T11:30:12;25.50;97.90
20081;DHT22;10200;49.232;9.222;2023-07-29T11:32:40;25.60;96.80
20081;DHT22;10200;49.232;9.222;2023-07-29T11:35:13;25.60;95.50
20081;DHT22;10200;49.232;9.222;2023-07-29T11:37:41;25.50;96.60
20081;DHT22;10200;49.232;9.222;2023-07-29T11:40:07;25.70;96.70
20081;DHT22;10200;49.232;9.222;2023-07-29T11:42:37;25.70;97.50
20081;DHT22;10200;49.232;9.222;2023-07-29T11:45:04;26.00;97.00
20081;DHT22;10200;49.232;9.222;2023-07-29T11:47:32;26.30;97.70
20081;DHT22;10200;49.232;9.222;2023-07-29T11:50:01;26.40;93.30
20081;DHT22;10200;49.232;9.222;2023-07-29T11:52:27;26.50;93.40
20081;DHT22;10200;49.232;9.222;2023-07-29T11:54:54;26.70;91.10
20081;DHT22;10200;49.232;9.222;2023-07-29T11:57:20;26.70;89.50
20081;DHT22;10200;49.232;9.222;2023-07-29T11:59:47;27.00;87.30
20081;DHT22;10200;49.232;9.222;2023-07-29T12:02:17;27.10;82.90
20081;DHT22;10200;49.232;9.222;2023-07-29T12:04:46;27.10;82.30
20081;DHT22;10200;49.232;9.222;2023-07-29T12:07:14;27.20;80.70
20081;DHT22;10200;49.232;9.222;2023-07-29T12:09:41;27.40;81.00
20081;DHT22;10200;49.232;9.222;2023-07-29T12:12:08;27.50;79.80
20081;DHT22;10200;49.232;9.222;2023-07-29T12:14:34;27.40;76.20
20081;DHT22;10200;49.232;9.222;2023-07-29T12:17:03;27.30;77.60
20081;DHT22;10200;49.232;9.222;2023-07-29T12:19:37;27.00;75.80
20081;DHT22;10200;49.232;9.222;2023-07-29T12:22:05;26.80;77.60
20081;DHT22;10200;49.232;9.222;2023-07-29T12:24:32;26.70;78.10
20081;DHT22;10200;49.232;9.222;2023-07-29T12:26:58;26.60;78.70
20081;DHT22;10200;49.232;9.222;2023-07-29T12:29:24;26.60;79.80
20081;DHT22;10200;49.232;9.222;2023-07-29T12:32:00;26.70;79.60
20081;DHT22;10200;49.232;9.222;2023-07-29T12:34:27;26.90;80.90
20081;DHT22;10200;49.232;9.222;2023-07-29T12:36:54;27.20;79.10
20081;DHT22;10200;49.232;9.222;2023-07-29T12:39:35;27.40;77.30
20081;DHT22;10200;49.232;9.222;2023-07-29T12:42:02;27.40;75.60
20081;DHT22;10200;49.232;9.222;2023-07-29T12:44:37;27.30;73.90
20081;DHT22;10200;49.232;9.222;2023-07-29T12:47:04;27.20;75.30
20081;DHT22;10200;49.232;9.222;2023-07-29T12:49:31;27.20;76.10
20081;DHT22;10200;49.232;9.222;2023-07-29T12:51:59;27.30;75.60
20081;DHT22;10200;49.232;9.222;2023-07-29T12:54:24;27.50;71.80
20081;DHT22;10200;49.232;9.222;2023-07-29T12:56:50;27.40;70.80
20081;DHT22;10200;49.232;9.222;2023-07-29T12:59:16;27.60;71.20
20081;DHT22;10200;49.232;9.222;2023-07-29T13:01:42;27.60;69.10
20081;DHT22;10200;49.232;9.222;2023-07-29T13:04:08;27.60;69.90
20081;DHT22;10200;49.232;9.222;2023-07-29T13:06:34;27.70;70.60
20081;DHT22;10200;49.232;9.222;2023-07-29T13:09:00;27.90;70.40
20081;DHT22;10200;49.232;9.222;2023-07-29T13:11:25;27.80;68.80
20081;DHT22;10200;49.232;9.222;2023-07-29T13:13:51;27.80;70.10
20081;DHT22;10200;49.232;9.222;2023-07-29T13:16:17;27.90;70.30
20081;DHT22;10200;49.232;9.222;2023-07-29T13:18:43;27.90;70.40
20081;DHT22;10200;49.232;9.222;2023-07-29T13:21:10;27.90;69.40
20081;DHT22;10200;49.232;9.222;2023-07-29T13:23:37;27.90;69.70
20081;DHT22;10200;49.232;9.222;2023-07-29T13:26:02;28.00;69.80
20081;DHT22;10200;49.232;9.222;2023-07-29T13:28:28;28.00;68.70
20081;DHT22;10200;49.232;9.222;2023-07-29T13:30:54;27.90;67.60
20081;DHT22;10200;49.232;9.222;2023-07-29T13:33:19;27.80;66.70
20081;DHT22;10200;49.232;9.222;2023-07-29T13:35:45;27.80;68.30
20081;DHT22;10200;49.232;9.222;2023-07-29T13:38:11;27.80;68.20
20081;DHT22;10200;49.232;9.222;2023-07-29T13:40:36;27.80;68.30
20081;DHT22;10200;49.232;9.222;2023-07-29T13:43:02;27.70;66.90
20081;DHT22;10200;49.232;9.222;2023-07-29T13:45:28;27.70;67.40
20081;DHT22;10200;49.232;9.222;2023-07-29T13:47:53;27.70;68.70
20081;DHT22;10200;49.232;9.222;2023-07-29T13:50:19;27.90;68.40
20081;DHT22;10200;49.232;9.222;2023-07-29T13:52:45;27.90;69.00
20081;DHT22;10200;49.232;9.222;2023-07-29T13:55:11;27.90;67.10
20081;DHT22;10200;49.232;9.222;2023-07-29T13:57:37;27.90;67.80
20081;DHT22;10200;49.232;9.222;2023-07-29T14:00:05;27.80;68.20
20081;DHT22;10200;49.232;9.222;2023-07-29T14:02:31;28.00;68.20
20081;DHT22;10200;49.232;9.222;2023-07-29T14:04:57;28.00;66.90
20081;DHT22;10200;49.232;9.222;2023-07-29T14:07:23;28.00;65.50
20081;DHT22;10200;49.232;9.222;2023-07-29T14:09:48;27.90;66.80
20081;DHT22;10200;49.232;9.222;2023-07-29T14:12:14;27.70;66.30
20081;DHT22;10200;49.232;9.222;2023-07-29T14:14:44;27.70;67.40
20081;DHT22;10200;49.232;9.222;2023-07-29T14:17:09;27.70;66.10
20081;DHT22;10200;49.232;9.222;2023-07-29T14:19:36;27.60;66.40
20081;DHT22;10200;49.232;9.222;2023-07-29T14:22:02;27.60;67.20
20081;DHT22;10200;49.232;9.222;2023-07-29T14:24:27;27.70;66.90
20081;DHT22;10200;49.232;9.222;2023-07-29T14:26:53;27.80;66.10
20081;DHT22;10200;49.232;9.222;2023-07-29T14:29:19;27.90;66.20
20081;DHT22;10200;49.232;9.222;2023-07-29T14:31:44;28.00;66.50
20081;DHT22;10200;49.232;9.222;2023-07-29T14:34:10;28.20;66.00
20081;DHT22;10200;49.232;9.222;2023-07-29T14:36:37;28.30;66.50
20081;DHT22;10200;49.232;9.222;2023-07-29T14:39:04;28.20;64.30
20081;DHT22;10200;49.232;9.222;2023-07-29T14:41:30;28.10;64.20
20081;DHT22;10200;49.232;9.222;2023-07-29T14:43:56;27.90;64.90
20081;DHT22;10200;49.232;9.222;2023-07-29T14:46:22;27.90;65.90
20081;DHT22;10200;49.232;9.222;2023-07-29T14:48:48;27.90;65.60
20081;DHT22;10200;49.232;9.222;2023-07-29T14:51:14;27.80;64.90
20081;DHT22;10200;49.232;9.222;2023-07-29T14:53:40;27.90;67.00
20081;DHT22;10200;49.232;9.222;2023-07-29T14:56:06;28.00;66.00
20081;DHT22;10200;49.232;9.222;2023-07-29T14:58:31;27.90;65.70
20081;DHT22;10200;49.232;9.222;2023-07-29T15:00:57;27.90;65.00
20081;DHT22;10200;49.232;9.222;2023-07-29T15:03:24;27.90;65.50
20081;DHT22;10200;49.232;9.222;2023-07-29T15:05:49;28.00;65.70
20081;DHT22;10200;49.232;9.222;2023-07-29T15:08:15;27.90;64.30
20081;DHT22;10200;49.232;9.222;2023-07-29T15:10:45;27.90;65.10
20081;DHT22;10200;49.232;9.222;2023-07-29T15:13:11;28.00;64.90
20081;DHT22;10200;49.232;9.222;2023-07-29T15:15:42;28.00;63.70
20081;DHT22;10200;49.232;9.222;2023-07-29T15:18:08;28.10;64.10
20081;DHT22;10200;49.232;9.222;2023-07-29T15:20:34;28.00;64.00
20081;DHT22;10200;49.232;9.222;2023-07-29T15:22:59;28.10;64.00
20081;DHT22;10200;49.232;9.222;2023-07-29T15:25:25;28.00;62.90
20081;DHT22;10200;49.232;9.222;2023-07-29T15:27:51;27.90;64.00
20081;DHT22;10200;49.232;9.222;2023-07-29T15:30:16;28.00;64.80
20081;DHT22;10200;49.232;9.222;2023-07-29T15:32:43;27.90;64.30
20081;DHT22;10200;49.232;9.222;2023-07-29T15:35:10;27.90;64.30
20081;DHT22;10200;49.232;9.222;2023-07-29T15:37:36;27.80;65.10